Pagina principale
METAR-TAF:

METAR-TAF

Aeroporti :

Ermelo, Sudafrica

latitudine: 26-29-44S, longitudine: 29-58-47E, altezza: 1737 m

Osservazione

Il bollettino è stato emesso 6 ore e 37 minuti fa, alle 09:46 UTC
Vento 6 kt da ovest
Temperature 15°C
Umidità 25%
Pressione 1025 hPa
Visibilità 10 km o più
nessuna nube inferiore a 1500 m e nessun cumulonembo

METAR: FAEO 240946Z 28006KT CAVOK 15/M05 Q1025

Ora: 18:23 (16:23 UTC)


TAF: mancante

Osservazioni e previsioni meteorologiche di più di 4000 aeroporti (messaggi METAR e TAF).

Le stazioni disponibili sono rappresentate dai dischi gialli e rossi sulla carta.

Puntare il mouse per vedere il nome della stazione.

Clicca sopra per visualizzare le osservazioni e previsioni meteorologiche.

Per cambiare la mappa : fare clic sui pulsanti verdi con una croce nera per ingrandire, il pulsante verde con un trattino per diminuire, o sulla freccia verde per le mappe adiacenti.


METAR-TAF: